Have a Safe July 4th! 

Flight Track Log - Related Links

Times and Time Zones

All times are in EDT time to prevent confusion due to time zone crossing. See the SWA2236 flight status page for this flight to view local times or setup timezone preferences in your user account.

Time Position Orientation Groundspeed Altitude Reporting Facility
EDT Latitude Longitude Course Direction KTS MPH feet Rate Location/Type
Tue 07:26:57 PM 30.5611 -81.6428 27° Northeast 240 276 4,000  Level Jacksonville Center
Tue 07:28:49 PM 30.6947 -81.6533 356° North 255 293 10,900 3,349 Climbing Jacksonville Center
Tue 07:29:49 PM 30.7803 -81.6353 10° North 269 310 13,600 3,050 Climbing Jacksonville Center
Tue 07:30:49 PM 30.8758 -81.6050 15° North 324 373 17,000 3,350 Climbing Jacksonville Center
Tue 07:31:49 PM 30.9739 -81.5744 15° North 345 397 20,300 3,050 Climbing Jacksonville Center
Tue 07:32:49 PM 31.0778 -81.5414 15° North 358 412 23,100 2,650 Climbing Jacksonville Center
Tue 07:33:49 PM 31.1861 -81.5058 16° North 400 460 25,600 2,400 Climbing Jacksonville Center
Tue 07:34:49 PM 31.2814 -81.4389 31° Northeast 397 457 27,900 2,200 Climbing Jacksonville Center
Tue 07:35:49 PM 31.3764 -81.3522 38° Northeast 419 482 30,000 2,000 Climbing Jacksonville Center
Tue 07:36:49 PM 31.4653 -81.2778 36° Northeast 433 498 31,900 2,250 Climbing Jacksonville Center
Tue 07:37:49 PM 31.5769 -81.2028 30° Northeast 425 489 34,500 1,550 Climbing Jacksonville Center
Tue 07:38:49 PM 31.6825 -81.1372 28° Northeast 416 479 35,000 250 Climbing Jacksonville Center
Tue 07:39:49 PM 31.7797 -81.0792 27° Northeast 423 487 35,000  Level Jacksonville Center
Tue 07:40:49 PM 31.8958 -81.0083 27° Northeast 423 487 35,000 550 Level Jacksonville Center
Tue 07:41:49 PM 31.9950 -80.9525 26° Northeast 423 487 36,100 1,550 Climbing Jacksonville Center
Tue 07:42:49 PM 32.1131 -80.8861 25° Northeast 423 487 38,100 1,650 Climbing Jacksonville Center
Tue 07:43:49 PM 32.2100 -80.8106 33° Northeast 416 479 39,400 1,200 Climbing Jacksonville Center
Tue 07:44:49 PM 32.3025 -80.7297 36° Northeast 410 472 40,500 800 Climbing Jacksonville Center
Tue 07:45:49 PM 32.3972 -80.6511 35° Northeast 416 479 41,000 250 Climbing Jacksonville Center
Tue 07:46:49 PM 32.4917 -80.5700 36° Northeast 416 479 41,000  Level Jacksonville Center
Tue 07:47:49 PM 32.5864 -80.4886 36° Northeast 421 484 41,000  Level Jacksonville Center
Tue 07:48:49 PM 32.6808 -80.4097 35° Northeast 414 476 41,000  Level Jacksonville Center
Tue 07:49:49 PM 32.7753 -80.3281 36° Northeast 414 476 41,000  Level Jacksonville Center
Tue 07:50:49 PM 32.8694 -80.2461 36° Northeast 414 476 41,000  Level Jacksonville Center
Tue 07:51:49 PM 32.9597 -80.1692 36° Northeast 430 495 41,000  Level Jacksonville Center
Tue 07:52:49 PM 33.0619 -80.0769 37° Northeast 430 495 41,000  Level Jacksonville Center
Tue 07:53:49 PM 33.1583 -79.9969 35° Northeast 425 489 41,000  Level Jacksonville Center
Tue 07:54:49 PM 33.2525 -79.9169 35° Northeast 420 483 41,000  Level Jacksonville Center
Tue 07:55:49 PM 33.3467 -79.8367 35° Northeast 415 478 41,000  Level Jacksonville Center
Tue 07:56:49 PM 33.4406 -79.7539 36° Northeast 421 484 41,000  Level Jacksonville Center
Tue 07:57:49 PM 33.5344 -79.6733 36° Northeast 421 484 41,000  Level Jacksonville Center
Tue 07:58:49 PM 33.6264 -79.5900 37° Northeast 421 484 41,000  Level Jacksonville Center
Tue 07:59:49 PM 33.7142 -79.5169 35° Northeast 421 484 41,000  Level Jacksonville Center
Tue 08:00:49 PM 33.8158 -79.4256 37° Northeast 421 484 41,000  Level Jacksonville Center
Tue 08:01:49 PM 33.8933 -79.3575 36° Northeast 403 464 41,000  Level Jacksonville Center
Tue 08:02:49 PM 33.9869 -79.2736 37° Northeast 403 464 41,000  Level Jacksonville Center
Tue 08:03:49 PM 34.0786 -79.1969 35° Northeast 403 464 41,000  Level Jacksonville Center
Tue 08:05:53 PM 34.2686 -79.0272 36° Northeast 407 468 41,000  Level Washington Center
Tue 08:06:53 PM 34.3686 -78.9533 31° Northeast 412 474 41,000  Level Washington Center
Tue 08:07:54 PM 34.4667 -78.8792 32° Northeast 417 480 41,000  Level Washington Center
Tue 08:08:54 PM 34.5736 -78.7903 34° Northeast 433 498 41,000  Level Washington Center
Tue 08:09:52 PM 34.6650 -78.7231 31° Northeast 433 498 41,000  Level Washington Center
Tue 08:10:53 PM 34.7736 -78.6414 32° Northeast 439 505 41,000  Level Washington Center
Tue 08:11:54 PM 34.8672 -78.5664 33° Northeast 422 486 41,000  Level Washington Center
Tue 08:12:53 PM 34.9650 -78.4914 32° Northeast 408 470 41,000  Level Washington Center
Tue 08:13:54 PM 35.0628 -78.4164 32° Northeast 408 470 41,000  Level Washington Center
Tue 08:14:54 PM 35.1606 -78.3383 33° Northeast 413 475 41,000  Level Washington Center
Tue 08:15:52 PM 35.2603 -78.2631 32° Northeast 423 487 41,000  Level Washington Center
Tue 08:16:53 PM 35.3581 -78.1847 33° Northeast 418 481 41,000  Level Washington Center
Tue 08:17:54 PM 35.4450 -78.1161 33° Northeast 418 481 41,000  Level Washington Center
Tue 08:18:54 PM 35.5447 -78.0428 31° Northeast 418 481 41,000  Level Washington Center
Tue 08:19:54 PM 35.6442 -77.9664 32° Northeast 418 481 41,000 -305 Level Washington Center
Tue 08:20:52 PM 35.7494 -77.9183 20° North 413 475 40,400 -504 Descending Washington Center
Tue 08:21:53 PM 35.8614 -77.9603 343° North 386 444 40,000 -198 Descending Washington Center
Tue 08:22:53 PM 35.9708 -78.0250 334° Northwest 402 463 40,000 -250 Level Washington Center
Tue 08:23:53 PM 36.0861 -78.0903 335° Northwest 435 501 39,500 -694 Descending Washington Center
Tue 08:24:54 PM 36.1994 -78.1556 335° Northwest 435 501 38,600 -958 Descending Washington Center
Tue 08:25:52 PM 36.3192 -78.2214 336° Northwest 445 512 37,600 -1,412 Descending Washington Center
Tue 08:26:53 PM 36.4367 -78.2847 337° Northwest 457 526 35,800 -1,835 Descending Washington Center
Tue 08:27:53 PM 36.5564 -78.3458 338° Northwest 457 526 33,900 -1,714 Descending Washington Center
Tue 08:28:52 PM 36.6719 -78.4017 339° North 457 526 32,400 -1,513 Descending Washington Center
Tue 08:29:52 PM 36.7833 -78.4550 339° North 442 509 30,900 -1,488 Descending Washington Center
Tue 08:30:53 PM 36.9011 -78.4958 345° North 442 509 29,400 -1,240 Descending Washington Center
Tue 08:31:53 PM 36.9664 -78.3864 53° Northeast 342 394 28,400 -694 Descending Washington Center
Tue 08:32:54 PM 36.9861 -78.2492 80° East 319 367 28,000 -545 Descending Washington Center
Tue 08:33:54 PM 36.9994 -78.1222 82° East 346 398 27,300 -864 Descending Washington Center
Tue 08:34:52 PM 37.0125 -77.9928 83° East 352 405 26,300 -958 Descending Washington Center
Tue 08:35:53 PM 37.0275 -77.8656 82° East 364 419 25,400 -650 Descending Washington Center
Tue 08:36:52 PM 37.0428 -77.7178 83° East 382 440 25,000 -303 Descending Washington Center
Tue 08:37:52 PM 37.0511 -77.5878 85° East 382 440 24,800 -595 Descending Washington Center
Tue 08:38:53 PM 37.0617 -77.4606 84° East 382 440 23,800 -885 Descending Washington Center
Tue 08:39:54 PM 37.0697 -77.3333 85° East 371 427 23,000 -403 Descending Washington Center
Tue 08:40:52 PM 37.0778 -77.2033 86° East 366 421 23,000  Level Washington Center
Tue 08:41:52 PM 37.0897 -77.0786 83° East 366 421 23,000  Level Washington Center
Tue 08:42:54 PM 37.1742 -77.0125 32° Northeast 325 374 23,000  Level Washington Center
Tue 08:43:54 PM 37.2783 -77.0144 359° North 318 366 23,000  Level Washington Center
Tue 08:44:54 PM 37.3742 -77.0267 354° North 348 400 23,000  Level Washington Center
Tue 08:45:52 PM 37.4889 -77.0367 356° North 379 436 23,000  Level Washington Center
Tue 08:46:52 PM 37.6014 -77.0492 355° North 391 450 23,000  Level Washington Center
Tue 08:47:53 PM 37.7158 -77.0619 355° North 398 458 23,000  Level Washington Center
Tue 08:48:53 PM 37.8283 -77.0747 355° North 408 470 23,000 -50 Level Washington Center
Tue 08:49:52 PM 37.9408 -77.0872 355° North 408 470 22,900 -555 Descending Washington Center
Tue 08:50:52 PM 38.0575 -77.1003 355° North 408 470 21,900 -1,350 Descending Washington Center
Tue 08:51:52 PM 38.1678 -77.1131 355° North 408 470 20,200 -1,983 Descending Washington Center
Tue 08:52:53 PM 38.2739 -77.1258 355° North 396 456 17,900 -2,529 Descending Washington Center
Tue 08:53:53 PM 38.3781 -77.1331 357° North 384 442 15,100 -1,835 Descending Washington Center
Tue 08:54:54 PM 38.4542 -77.0553 39° Northeast 338 389 14,200 -1,563 Descending Washington Center
Tue 08:55:52 PM 38.5239 -76.9689 44° Northeast 332 382 12,000 -1,714 Descending Washington Center
Tue 08:56:53 PM 38.5936 -76.8853 43° Northeast 332 382 10,800 -934 Descending Washington Center
Tue 08:57:54 PM 38.6486 -76.8144 45° Northeast 325 374 10,100 -908 Descending Washington Center
Tue 08:58:52 PM 38.7036 -76.7436 45° Northeast 297 342 9,000 -864 Descending Washington Center
Tue 08:59:52 PM 38.7419 -76.6617 59° Northeast 280 322 8,400 -1,209 Descending Washington Center
Tue 09:01:01 PM 38.7833 -76.5500 65° Northeast 279 321 6,400 -1,628 Descending Potomac TRACON
Tue 09:02:01 PM 38.8500 -76.5167 21° North 265 305 4,900 -1,210 Descending Potomac TRACON
Tue 09:03:00 PM 38.9167 -76.5167 360° North 251 289 4,000 -700 Descending Potomac TRACON
Tue 09:04:01 PM 38.9833 -76.5000 11° North 226 260 3,500 -397 Descending Potomac TRACON
Tue 09:05:01 PM 39.0333 -76.5500 322° Northwest 175 201 3,200 -600 Descending Potomac TRACON
Tue 09:06:01 PM 39.0667 -76.5833 322° Northwest 167 192 2,300 -850 Descending Potomac TRACON
Tue 09:07:01 PM 39.1000 -76.6167 322° Northwest 143 165 1,500 -750 Descending Potomac TRACON
Tue 09:08:01 PM 39.1333 -76.6333 339° North 124 143 800 -700 Descending Potomac TRACON
Tue 09:10:00 PM 39.1667 -76.6667 339° North  Level FlightAware Approximate
Tue 09:17:00 PM 39.1754 -76.6683 339° North  Level Estimated
Tue 09:18:00 PM 39.1754 -76.6683 339° North  Level Estimated
Tue 09:19:00 PM 39.1754 -76.6683 339° North  Level Estimated
Tue 09:20:00 PM 39.1754 -76.6683 339° North  Level Estimated
Tue 09:21:00 PM 39.1754 -76.6683 339° North  Level Estimated
Tue 09:22:00 PM 39.1754 -76.6683 339° North  Level Estimated

Login

Don't have an account? Register now (free) for customized features, flight alerts, and more!